LFBY/XDA METAR and TAF weather

Enter ICAO airport designator
Station Type Date Time Source
LFBY METAR 2020/11/27 03:00 UTC NOAA

LFBY 270300Z AUTO 03003KT 340V080 6000 // NSC 09/09 Q1013


Station Type Date Time Source
LFBY Decoded METAR 2020/11/27 03:00 UTC NOAA

Dax, France (LFBY) 43-41N 001-04W 32M
Nov 26, 2020 - 10:00 PM EST / 2020.11.27 0300 UTC
Wind: from the NNE (030 degrees) at 3 MPH (3 KT) (direction variable):0
Visibility: 3 mile(s):0
Temperature: 48 F (9 C)
Dew Point: 48 F (9 C)
Relative Humidity: 100%
Pressure (altimeter): 29.91 in. Hg (1013 hPa)
ob: LFBY 270300Z AUTO 03003KT 340V080 6000 // NSC 09/09 Q1013
cycle: 3

Station Type Date Time Source
LFBY TAF UTC NOAA

Error!

Example: see airport list